Time;durP1;ratioP1;P1;durP2;ratioP2;P2;SDS_P1;SDS_P2;PMS_P1;PMS_P2;Temp;Humidity;BMP_temperature;BMP_pressure;BME280_temperature;BME280_humidity;BME280_pressure;Samples;Min_cycle;Max_cycle;Signal;HPM_P1;HPM_P2
2021/06/30 00:01:18;;;;;;;9.65;5.57;;;16.30;99.90;;;;;;4952975;29;20039;-44
2021/06/30 00:03:44;;;;;;;12.05;6.78;;;16.20;99.90;;;;;;4935458;29;20495;-44
2021/06/30 00:06:10;;;;;;;6.25;5.70;;;16.20;99.90;;;;;;4952691;28;20039;-44
2021/06/30 00:08:36;;;;;;;15.43;5.45;;;16.10;99.90;;;;;;4952487;29;20550;-47
2021/06/30 00:11:03;;;;;;;12.80;5.57;;;16.10;99.90;;;;;;4952492;29;20035;-44
2021/06/30 00:13:29;;;;;;;15.13;5.88;;;16.10;99.90;;;;;;4952318;29;20041;-44
2021/06/30 00:15:55;;;;;;;21.20;6.63;;;16.20;99.90;;;;;;4952637;29;20110;-44
2021/06/30 00:18:23;;;;;;;10.27;5.13;;;16.10;99.90;;;;;;4952993;29;20019;-44
2021/06/30 00:20:49;;;;;;;14.13;5.72;;;16.20;99.90;;;;;;4951833;29;20031;-45
2021/06/30 00:23:15;;;;;;;10.40;4.95;;;16.20;99.90;;;;;;4952552;29;20063;-45
2021/06/30 00:25:42;;;;;;;12.65;5.03;;;16.20;99.90;;;;;;4951357;29;20067;-46
2021/06/30 00:28:07;;;;;;;7.03;4.95;;;16.20;99.90;;;;;;4952666;29;20074;-45
2021/06/30 00:30:33;;;;;;;11.63;4.88;;;16.10;99.90;;;;;;4951478;29;20031;-45
2021/06/30 00:32:58;;;;;;;23.77;5.35;;;16.10;99.90;;;;;;4952244;29;20059;-43
2021/06/30 00:35:24;;;;;;;6.43;4.63;;;16.10;99.90;;;;;;4951430;28;20031;-46
2021/06/30 00:37:49;;;;;;;9.82;5.03;;;16.10;99.90;;;;;;4956235;29;20510;-46
2021/06/30 00:40:15;;;;;;;4.97;4.10;;;16.10;99.90;;;;;;4955524;29;20495;-48
2021/06/30 00:42:41;;;;;;;8.02;4.53;;;16.10;99.90;;;;;;4956256;29;20110;-46
2021/06/30 00:45:08;;;;;;;8.52;4.32;;;16.10;99.90;;;;;;4955100;29;20075;-45
2021/06/30 00:47:34;;;;;;;13.23;4.68;;;16.10;99.90;;;;;;4955631;29;20039;-44
2021/06/30 00:50:00;;;;;;;10.07;3.85;;;16.20;99.90;;;;;;4955732;29;20027;-46
2021/06/30 00:52:25;;;;;;;9.07;3.80;;;16.20;99.90;;;;;;4955751;29;20402;-45
2021/06/30 00:54:51;;;;;;;7.00;3.63;;;16.20;99.90;;;;;;4955847;28;20490;-44
2021/06/30 00:57:18;;;;;;;8.65;3.53;;;16.10;99.90;;;;;;4956099;29;20110;-49
2021/06/30 00:59:44;;;;;;;7.10;3.38;;;16.20;99.90;;;;;;4955711;29;20041;-44
2021/06/30 01:02:10;;;;;;;7.32;3.75;;;16.20;99.90;;;;;;4956016;29;20082;-49
2021/06/30 01:04:35;;;;;;;10.80;4.45;;;16.20;99.90;;;;;;4954810;28;20035;-44
2021/06/30 01:07:01;;;;;;;4.95;4.43;;;16.30;99.90;;;;;;4955793;29;20035;-46
2021/06/30 01:09:27;;;;;;;7.85;3.53;;;16.40;99.90;;;;;;4954754;29;20031;-44
2021/06/30 01:11:52;;;;;;;8.65;3.65;;;16.40;99.90;;;;;;4955815;29;20082;-44
2021/06/30 01:14:32;;;;;;;11.80;3.60;;;16.50;99.90;;;;;;4954650;28;20070;-47
2021/06/30 01:16:59;;;;;;;15.32;4.00;;;16.50;99.90;;;;;;4955186;29;20437;-41
2021/06/30 01:19:27;;;;;;;5.60;3.70;;;16.40;99.90;;;;;;4955310;29;20029;-46
2021/06/30 01:21:52;;;;;;;8.05;3.30;;;16.40;99.90;;;;;;4955290;29;20032;-44
2021/06/30 01:24:18;;;;;;;6.30;3.38;;;16.40;99.90;;;;;;4954638;29;20106;-45
2021/06/30 01:26:45;;;;;;;3.50;3.05;;;16.40;99.90;;;;;;4955174;29;20027;-45
2021/06/30 01:29:11;;;;;;;7.85;3.55;;;16.40;99.90;;;;;;4955004;29;20063;-43
2021/06/30 01:31:36;;;;;;;14.02;3.92;;;16.40;99.90;;;;;;4955064;29;20498;-42
2021/06/30 01:34:02;;;;;;;5.45;3.03;;;16.40;99.90;;;;;;4954816;28;20039;-42
2021/06/30 01:36:29;;;;;;;3.05;2.75;;;16.40;99.90;;;;;;4954860;29;20096;-47
2021/06/30 01:38:54;;;;;;;6.35;2.63;;;16.30;99.90;;;;;;4954980;29;20027;-47
2021/06/30 01:41:20;;;;;;;8.43;3.17;;;16.30;99.90;;;;;;4954573;29;20038;-45
2021/06/30 01:43:45;;;;;;;4.93;3.45;;;16.30;99.90;;;;;;4954774;28;20036;-47
2021/06/30 01:46:11;;;;;;;11.60;3.10;;;16.30;99.90;;;;;;4954703;28;20082;-48
2021/06/30 01:48:36;;;;;;;11.02;4.07;;;16.20;99.90;;;;;;4954902;29;20483;-49
2021/06/30 01:51:02;;;;;;;7.40;3.45;;;16.20;99.90;;;;;;4954390;29;20031;-45
2021/06/30 01:53:28;;;;;;;4.70;3.47;;;16.10;99.90;;;;;;4954749;29;20031;-45
2021/06/30 01:55:54;;;;;;;11.45;3.30;;;16.10;99.90;;;;;;4954929;29;20056;-47
2021/06/30 01:58:22;;;;;;;10.82;3.92;;;16.10;99.90;;;;;;4954929;29;20027;-46
2021/06/30 02:00:52;;;;;;;10.20;3.40;;;16.10;99.90;;;;;;4954807;29;20039;-43
2021/06/30 02:03:18;;;;;;;23.85;4.32;;;16.10;99.90;;;;;;4954653;29;20509;-42
2021/06/30 02:05:44;;;;;;;11.70;4.05;;;16.20;99.90;;;;;;4953985;29;20054;-42
2021/06/30 02:08:10;;;;;;;3.50;3.20;;;16.20;99.90;;;;;;4954281;29;20035;-43
2021/06/30 02:10:36;;;;;;;8.05;2.60;;;16.10;99.90;;;;;;4954023;29;20086;-41
2021/06/30 02:13:02;;;;;;;5.28;2.80;;;16.10;99.90;;;;;;4954586;29;20031;-44
2021/06/30 02:15:29;;;;;;;2.80;2.60;;;16.10;99.90;;;;;;4954074;28;20054;-43
2021/06/30 02:17:59;;;;;;;3.72;2.90;;;16.10;99.90;;;;;;4953903;29;20687;-43
2021/06/30 02:20:26;;;;;;;5.82;3.20;;;16.10;99.90;;;;;;4954111;29;20039;-47
2021/06/30 02:22:54;;;;;;;9.75;2.88;;;16.10;99.90;;;;;;4954020;29;20407;-46
2021/06/30 02:25:25;;;;;;;6.25;2.85;;;16.10;99.90;;;;;;4954190;28;20040;-45
2021/06/30 02:27:51;;;;;;;6.88;3.45;;;16.10;99.90;;;;;;4953863;29;20150;-43
2021/06/30 02:30:26;;;;;;;14.30;3.85;;;16.10;99.90;;;;;;4954124;29;20035;-43
2021/06/30 02:32:52;;;;;;;;;;;16.20;99.90;;;;;;4954092;29;20166;-44
2021/06/30 02:35:20;;;;;;;5.63;3.80;;;16.10;99.90;;;;;;4953604;29;20008;-43
2021/06/30 02:37:48;;;;;;;9.30;3.28;;;16.10;99.90;;;;;;4953813;29;20024;-43
2021/06/30 02:40:16;;;;;;;9.85;3.45;;;16.10;99.90;;;;;;4953902;29;20027;-43
2021/06/30 02:42:43;;;;;;;10.77;3.95;;;16.00;99.90;;;;;;4953631;29;20103;-45
2021/06/30 02:45:10;;;;;;;9.43;4.10;;;16.00;99.90;;;;;;4953829;28;20438;-42
2021/06/30 02:47:37;;;;;;;6.82;3.88;;;16.00;99.90;;;;;;4953651;29;20698;-42
2021/06/30 02:50:07;;;;;;;4.47;3.72;;;16.00;99.90;;;;;;4953621;29;20050;-42
2021/06/30 02:52:33;;;;;;;9.27;3.95;;;15.90;99.90;;;;;;4953014;29;20031;-43
2021/06/30 02:54:59;;;;;;;14.95;3.88;;;15.90;99.90;;;;;;4953373;28;20495;-43
2021/06/30 02:57:25;;;;;;;12.90;4.40;;;15.80;99.90;;;;;;4953686;29;20043;-43
2021/06/30 02:59:51;;;;;;;3.33;3.05;;;15.80;99.90;;;;;;4952633;28;20066;-43
2021/06/30 03:02:16;;;;;;;8.23;4.25;;;15.70;99.90;;;;;;4953279;29;20157;-43
2021/06/30 03:04:42;;;;;;;5.45;3.95;;;15.70;99.90;;;;;;4953121;28;20526;-43
2021/06/30 03:07:07;;;;;;;11.18;4.75;;;15.70;99.90;;;;;;4953145;29;20107;-43
2021/06/30 03:09:33;;;;;;;8.80;4.07;;;15.60;99.90;;;;;;4953294;29;20043;-43
2021/06/30 03:11:58;;;;;;;7.47;4.45;;;15.60;99.90;;;;;;4953035;29;20035;-43
2021/06/30 03:14:24;;;;;;;10.35;4.28;;;15.60;99.90;;;;;;4953121;29;20394;-42
2021/06/30 03:16:50;;;;;;;8.75;4.25;;;15.60;99.90;;;;;;4953175;29;20394;-42
2021/06/30 03:19:16;;;;;;;7.55;4.40;;;15.60;99.90;;;;;;4952776;29;20503;-43
2021/06/30 03:21:41;;;;;;;8.38;3.67;;;15.60;99.90;;;;;;4952831;29;20031;-43
2021/06/30 03:24:07;;;;;;;6.95;3.88;;;15.60;99.90;;;;;;4952905;29;20031;-42
2021/06/30 03:26:33;;;;;;;6.80;3.70;;;15.70;99.90;;;;;;4953103;29;20031;-46
2021/06/30 03:29:01;;;;;;;6.45;3.97;;;15.70;99.90;;;;;;4952721;29;20031;-44
2021/06/30 03:31:27;;;;;;;11.00;4.10;;;15.70;99.90;;;;;;4953020;29;20059;-42
2021/06/30 03:33:52;;;;;;;8.20;4.15;;;15.70;99.90;;;;;;4952284;28;20079;-44
2021/06/30 03:36:18;;;;;;;7.30;4.70;;;15.70;99.90;;;;;;4952643;29;20038;-43
2021/06/30 03:38:43;;;;;;;6.95;4.57;;;15.60;99.90;;;;;;4952206;29;20031;-42
2021/06/30 03:41:09;;;;;;;10.23;5.72;;;15.60;99.90;;;;;;4952626;29;20106;-44
2021/06/30 03:43:35;;;;;;;10.25;4.55;;;15.60;99.90;;;;;;4952677;29;20031;-42
2021/06/30 03:46:00;;;;;;;9.57;5.30;;;15.50;99.90;;;;;;4953074;28;20062;-43
2021/06/30 03:48:25;;;;;;;12.05;4.40;;;15.50;99.90;;;;;;4952341;29;20513;-43
2021/06/30 03:50:51;;;;;;;6.03;4.88;;;15.50;99.90;;;;;;4934959;29;20035;-43
2021/06/30 03:53:16;;;;;;;11.57;5.10;;;15.50;99.90;;;;;;4952012;29;20027;-44
2021/06/30 03:55:42;;;;;;;12.23;5.03;;;15.50;99.90;;;;;;4952562;29;20077;-46
2021/06/30 03:58:07;;;;;;;7.18;4.82;;;15.60;99.90;;;;;;4952613;29;20031;-45
2021/06/30 04:00:33;;;;;;;5.53;5.00;;;15.50;99.90;;;;;;4952481;29;20292;-46
2021/06/30 04:02:58;;;;;;;9.30;5.03;;;15.50;99.90;;;;;;4952151;29;20023;-44
2021/06/30 04:05:24;;;;;;;9.65;4.60;;;15.50;99.90;;;;;;4952118;29;20106;-45
2021/06/30 04:07:50;;;;;;;7.72;5.07;;;15.60;99.90;;;;;;4952546;29;20027;-47
2021/06/30 04:10:19;;;;;;;8.75;4.55;;;15.60;99.90;;;;;;4952097;28;20051;-42
2021/06/30 04:12:44;;;;;;;8.90;4.70;;;15.70;99.90;;;;;;4952324;29;20031;-45
2021/06/30 04:15:10;;;;;;;8.77;4.32;;;15.70;99.90;;;;;;4952184;29;20489;-45
2021/06/30 04:17:36;;;;;;;13.50;4.93;;;15.80;99.90;;;;;;4952523;29;20027;-42
2021/06/30 04:20:08;;;;;;;8.35;4.93;;;15.80;99.90;;;;;;4954923;29;20031;-44
2021/06/30 04:22:34;;;;;;;6.60;4.65;;;15.90;99.90;;;;;;4952451;29;20035;-44
2021/06/30 04:25:00;;;;;;;9.20;5.03;;;15.90;99.90;;;;;;4952071;29;20086;-43
2021/06/30 04:27:25;;;;;;;6.32;4.70;;;15.90;99.90;;;;;;4952226;29;20495;-42
2021/06/30 04:29:51;;;;;;;5.50;5.05;;;16.00;99.90;;;;;;4952654;29;20028;-43
2021/06/30 04:32:17;;;;;;;7.75;4.97;;;16.00;99.90;;;;;;4953049;29;20081;-43
2021/06/30 04:34:42;;;;;;;7.80;4.53;;;16.00;99.90;;;;;;4954730;29;20399;-42
2021/06/30 04:37:08;;;;;;;6.53;4.85;;;15.90;99.90;;;;;;4935726;29;20046;-42
2021/06/30 04:39:34;;;;;;;8.80;5.05;;;15.90;99.90;;;;;;4952352;29;20491;-41
2021/06/30 04:41:59;;;;;;;7.05;5.22;;;15.80;99.90;;;;;;4952103;29;20030;-43
2021/06/30 04:44:25;;;;;;;10.40;5.50;;;15.90;99.90;;;;;;4952009;29;20066;-42
2021/06/30 04:46:50;;;;;;;5.13;4.63;;;15.90;99.90;;;;;;4952214;29;20041;-44
2021/06/30 04:49:16;;;;;;;10.95;4.50;;;15.90;99.90;;;;;;4935139;29;20031;-44
2021/06/30 04:51:44;;;;;;;15.38;4.38;;;15.90;99.90;;;;;;5005384;23;20050;-42
2021/06/30 04:54:10;;;;;;;9.85;4.60;;;16.00;99.90;;;;;;5010276;28;20093;-44
2021/06/30 04:56:42;;;;;;;14.65;4.85;;;16.10;99.90;;;;;;4994489;28;20114;-46
2021/06/30 04:59:08;;;;;;;4.97;3.85;;;16.20;99.90;;;;;;4991538;28;20077;-44
2021/06/30 05:01:34;;;;;;;4.63;3.25;;;16.30;99.90;;;;;;4990611;28;20114;-45
2021/06/30 05:03:59;;;;;;;12.80;3.72;;;16.30;99.90;;;;;;4990539;28;20106;-43
2021/06/30 05:06:25;;;;;;;5.03;3.40;;;16.30;99.90;;;;;;4990834;28;20370;-42
2021/06/30 05:08:51;;;;;;;8.77;3.22;;;16.30;99.90;;;;;;4990698;28;20038;-48
2021/06/30 05:11:17;;;;;;;6.80;3.00;;;16.30;99.90;;;;;;4990413;28;20038;-45
2021/06/30 05:13:42;;;;;;;2.80;2.60;;;16.40;99.90;;;;;;4990547;28;20058;-41
2021/06/30 05:16:08;;;;;;;8.95;3.45;;;16.50;99.90;;;;;;4991181;28;20030;-44
2021/06/30 05:18:33;;;;;;;4.05;2.80;;;16.50;99.90;;;;;;4990688;28;20450;-42
2021/06/30 05:20:59;;;;;;;4.85;2.80;;;16.50;99.90;;;;;;4973198;28;20076;-46
2021/06/30 05:23:25;;;;;;;3.65;2.80;;;16.50;99.90;;;;;;4994445;28;20026;-43
2021/06/30 05:25:51;;;;;;;6.55;3.63;;;16.50;99.90;;;;;;4994156;28;20374;-44
2021/06/30 05:28:16;;;;;;;2.92;2.70;;;16.50;99.90;;;;;;4994627;28;20029;-44
2021/06/30 05:30:42;;;;;;;7.50;2.72;;;16.50;99.90;;;;;;4994285;28;20062;-50
2021/06/30 05:33:09;;;;;;;6.53;3.10;;;16.60;99.90;;;;;;4994004;28;20430;-39
2021/06/30 05:35:34;;;;;;;8.40;2.67;;;16.50;99.90;;;;;;4993794;28;20023;-46
2021/06/30 05:38:00;;;;;;;6.43;3.33;;;16.60;99.90;;;;;;4993672;28;20049;-45
2021/06/30 05:40:25;;;;;;;10.05;3.17;;;16.60;99.90;;;;;;4994009;28;20397;-46
2021/06/30 05:42:51;;;;;;;4.93;3.58;;;16.50;99.90;;;;;;4994165;28;20398;-45
2021/06/30 05:45:17;;;;;;;7.60;3.38;;;16.50;99.90;;;;;;4993668;28;20041;-42
2021/06/30 05:47:44;;;;;;;7.70;3.45;;;16.50;99.90;;;;;;4993731;28;20026;-44
2021/06/30 05:50:11;;;;;;;7.50;3.63;;;16.50;99.90;;;;;;4993893;28;20026;-43
2021/06/30 05:52:37;;;;;;;4.40;4.00;;;16.50;99.90;;;;;;4993523;28;20113;-44
2021/06/30 05:55:04;;;;;;;11.82;3.83;;;16.60;99.90;;;;;;4993317;28;20058;-43
2021/06/30 05:57:30;;;;;;;4.40;3.78;;;16.60;99.90;;;;;;4993452;28;20031;-45
2021/06/30 05:59:55;;;;;;;8.95;4.28;;;16.60;99.90;;;;;;4993987;28;20018;-43
2021/06/30 06:02:21;;;;;;;7.28;4.07;;;16.70;99.90;;;;;;4993493;28;20031;-44
2021/06/30 06:04:46;;;;;;;8.77;4.53;;;16.70;99.90;;;;;;4992924;28;20027;-45
2021/06/30 06:07:12;;;;;;;12.60;4.32;;;16.80;99.90;;;;;;4993352;28;20283;-43
2021/06/30 06:09:37;;;;;;;10.20;4.32;;;16.80;99.90;;;;;;4993294;28;20489;-46
2021/06/30 06:12:03;;;;;;;5.68;4.30;;;16.90;99.90;;;;;;4993094;28;20109;-46
2021/06/30 06:14:29;;;;;;;4.70;4.25;;;16.90;99.90;;;;;;4992967;28;20109;-47
2021/06/30 06:16:56;;;;;;;6.15;4.55;;;16.90;99.90;;;;;;4975738;28;20023;-43
2021/06/30 06:19:22;;;;;;;7.18;4.85;;;16.90;99.90;;;;;;4993240;28;20068;-43
2021/06/30 06:21:48;;;;;;;12.30;5.05;;;17.00;99.90;;;;;;4993194;28;20497;-43
2021/06/30 06:24:14;;;;;;;8.90;4.90;;;17.00;99.90;;;;;;4992815;28;20084;-48
2021/06/30 06:26:39;;;;;;;7.07;4.47;;;16.90;99.90;;;;;;4993106;28;20510;-43
2021/06/30 06:29:05;;;;;;;8.75;4.90;;;16.90;99.90;;;;;;4993577;28;20058;-42
2021/06/30 06:31:31;;;;;;;7.43;5.07;;;17.00;99.90;;;;;;4993101;28;20026;-47
2021/06/30 06:33:56;;;;;;;7.15;5.38;;;16.90;99.90;;;;;;4991778;28;20493;-45
2021/06/30 06:36:22;;;;;;;8.80;6.22;;;16.90;99.90;;;;;;4993014;28;20030;-45
2021/06/30 06:38:48;;;;;;;11.07;6.20;;;16.90;99.90;;;;;;4992777;28;20486;-46
2021/06/30 06:41:14;;;;;;;10.15;7.30;;;16.90;99.90;;;;;;4992761;28;20034;-44
2021/06/30 06:43:42;;;;;;;10.43;7.07;;;17.00;99.90;;;;;;4996226;28;20030;-45
2021/06/30 06:46:09;;;;;;;11.48;6.65;;;17.00;99.90;;;;;;4992622;28;20076;-48
2021/06/30 06:48:35;;;;;;;8.98;6.40;;;17.10;99.90;;;;;;5007136;28;20030;-44
2021/06/30 06:51:00;;;;;;;7.35;5.88;;;17.20;99.90;;;;;;5011809;28;20032;-44
2021/06/30 06:53:26;;;;;;;11.38;6.57;;;17.30;99.90;;;;;;5007208;28;20084;-41
2021/06/30 06:55:52;;;;;;;7.82;5.88;;;17.40;99.90;;;;;;4998041;28;20476;-43
2021/06/30 06:58:18;;;;;;;6.97;5.30;;;17.50;99.90;;;;;;4993797;28;20038;-46
2021/06/30 07:00:43;;;;;;;8.05;5.53;;;17.60;99.90;;;;;;4994121;28;20026;-42
2021/06/30 07:03:09;;;;;;;10.48;6.28;;;17.60;99.90;;;;;;5001015;28;20061;-41
2021/06/30 07:05:34;;;;;;;8.25;5.45;;;17.70;99.90;;;;;;5000603;28;20382;-41
2021/06/30 07:08:00;;;;;;;5.88;4.97;;;17.70;99.90;;;;;;5012040;28;20029;-41
2021/06/30 07:10:25;;;;;;;9.93;5.38;;;17.70;99.90;;;;;;4999840;28;20045;-41
2021/06/30 07:12:51;;;;;;;4.55;4.15;;;17.70;99.90;;;;;;4986408;28;20026;-41
2021/06/30 07:15:16;;;;;;;8.70;5.57;;;17.80;99.90;;;;;;5003338;28;20022;-43
2021/06/30 07:17:42;;;;;;;12.13;5.75;;;17.80;99.90;;;;;;4992385;28;20046;-44
2021/06/30 07:20:08;;;;;;;8.57;5.93;;;17.80;99.90;;;;;;5009182;28;20024;-44
2021/06/30 07:22:34;;;;;;;9.90;5.13;;;17.80;99.90;;;;;;5006607;28;20031;-42
2021/06/30 07:25:00;;;;;;;7.50;5.97;;;17.70;99.90;;;;;;5003043;28;20030;-44
2021/06/30 07:27:25;;;;;;;12.05;6.97;;;17.70;99.90;;;;;;5005456;28;20169;-46
2021/06/30 07:29:51;;;;;;;10.65;5.45;;;17.70;99.90;;;;;;4999441;28;20105;-43
2021/06/30 07:32:16;;;;;;;8.90;5.85;;;17.80;99.90;;;;;;4991156;28;20032;-46
2021/06/30 07:34:42;;;;;;;15.93;5.78;;;17.70;99.90;;;;;;4991249;28;20464;-41
2021/06/30 07:37:08;;;;;;;13.80;6.03;;;17.70;99.90;;;;;;5007177;28;20030;-42
2021/06/30 07:39:34;;;;;;;16.50;5.40;;;17.70;99.90;;;;;;5009767;28;20448;-42
2021/06/30 07:42:01;;;;;;;12.02;7.38;;;17.60;99.90;;;;;;4991243;28;20494;-44
2021/06/30 07:44:26;;;;;;;7.82;5.53;;;17.50;99.90;;;;;;5006912;28;20066;-44
2021/06/30 07:46:52;;;;;;;8.02;6.03;;;17.50;99.90;;;;;;5010844;28;20056;-43
2021/06/30 07:49:18;;;;;;;9.25;6.55;;;17.40;99.90;;;;;;5011743;28;20117;-46
2021/06/30 07:51:43;;;;;;;5.50;5.00;;;17.50;99.90;;;;;;5005595;28;20089;-44
2021/06/30 07:54:09;;;;;;;7.88;5.13;;;17.50;99.90;;;;;;4994059;28;20223;-46
2021/06/30 07:56:34;;;;;;;7.65;5.90;;;17.50;99.90;;;;;;4997483;28;20033;-44
2021/06/30 07:59:01;;;;;;;8.52;6.03;;;17.50;99.90;;;;;;5012098;28;20022;-43
2021/06/30 08:01:27;;;;;;;8.90;4.65;;;17.50;99.90;;;;;;5010069;28;20421;-43
2021/06/30 08:03:53;;;;;;;6.82;4.30;;;17.60;99.90;;;;;;5010997;28;20030;-43
2021/06/30 08:06:18;;;;;;;5.05;4.65;;;17.60;99.90;;;;;;5004986;28;20293;-46
2021/06/30 08:08:43;;;;;;;4.70;4.30;;;17.60;99.90;;;;;;5009069;28;20072;-44
2021/06/30 08:11:09;;;;;;;5.32;4.53;;;17.70;99.90;;;;;;5010388;28;20056;-47
2021/06/30 08:13:34;;;;;;;4.18;3.88;;;17.80;99.90;;;;;;5008952;28;20033;-44
2021/06/30 08:16:00;;;;;;;7.28;4.68;;;17.90;99.90;;;;;;4992357;28;20030;-43
2021/06/30 08:18:25;;;;;;;5.18;3.58;;;17.90;99.90;;;;;;5008662;28;20045;-44
2021/06/30 08:20:52;;;;;;;22.77;3.70;;;17.90;99.90;;;;;;4997733;28;20030;-43
2021/06/30 08:23:18;;;;;;;8.93;3.60;;;17.90;99.90;;;;;;4992210;28;20412;-43
2021/06/30 08:25:45;;;;;;;6.07;3.28;;;17.90;99.90;;;;;;4993507;28;20018;-44
2021/06/30 08:28:12;;;;;;;3.72;3.42;;;17.80;99.90;;;;;;4994293;28;20089;-50
2021/06/30 08:30:38;;;;;;;3.50;2.88;;;17.80;99.90;;;;;;5009786;28;20116;-44
2021/06/30 08:33:04;;;;;;;4.38;3.40;;;17.80;99.90;;;;;;5000344;28;20058;-47
2021/06/30 08:35:29;;;;;;;3.45;3.15;;;17.70;99.90;;;;;;4990804;28;20085;-49
2021/06/30 08:37:55;;;;;;;11.43;3.10;;;17.70;99.90;;;;;;4991728;28;20018;-49
2021/06/30 08:40:21;;;;;;;3.72;3.35;;;17.70;99.90;;;;;;4990142;28;20396;-43
2021/06/30 08:42:46;;;;;;;3.28;2.97;;;17.70;99.90;;;;;;5008498;28;20509;-47
2021/06/30 08:45:12;;;;;;;6.05;3.22;;;17.70;99.90;;;;;;4975920;28;20034;-54
2021/06/30 08:47:42;;;;;;;4.25;3.33;;;17.80;99.90;;;;;;4991406;28;20030;-43
2021/06/30 08:50:09;;;;;;;8.95;3.80;;;17.90;99.90;;;;;;5002623;28;20398;-43
2021/06/30 08:52:35;;;;;;;3.33;2.85;;;17.90;99.90;;;;;;5001594;28;20531;-42
2021/06/30 08:55:08;;;;;;;5.45;3.58;;;18.00;99.90;;;;;;5006770;28;20436;-48
2021/06/30 08:57:35;;;;;;;3.90;3.60;;;18.10;99.90;;;;;;5004882;28;20023;-49
2021/06/30 09:00:01;;;;;;;6.78;3.55;;;18.20;99.90;;;;;;4995660;28;20034;-46
2021/06/30 09:02:27;;;;;;;3.72;3.42;;;18.30;99.90;;;;;;4997002;28;20030;-46
2021/06/30 09:05:11;;;;;;;8.15;3.40;;;18.50;99.90;;;;;;5013986;28;20022;-46
2021/06/30 09:07:36;;;;;;;5.30;3.50;;;18.60;99.90;;;;;;5012612;28;20056;-55
2021/06/30 09:10:02;;;;;;;10.35;3.83;;;18.70;99.90;;;;;;5002563;28;20025;-47
2021/06/30 09:12:39;;;;;;;5.88;3.70;;;18.70;99.90;;;;;;5008817;28;20121;-52
2021/06/30 09:15:18;;;;;;;6.22;4.10;;;18.60;99.90;;;;;;4997495;28;20054;-46
2021/06/30 09:17:46;;;;;;;4.03;3.72;;;18.60;99.90;;;;;;4982468;28;20108;-52
2021/06/30 09:20:13;;;;;;;3.75;3.45;;;18.70;99.90;;;;;;5014095;28;20026;-50
2021/06/30 09:22:41;;;;;;;6.18;4.00;;;18.60;99.90;;;;;;5013991;28;20412;-47
2021/06/30 09:25:08;;;;;;;5.32;3.70;;;18.70;99.90;;;;;;4995978;28;20124;-49
2021/06/30 09:27:43;;;;;;;5.18;3.65;;;18.80;99.90;;;;;;5014082;28;20025;-50
2021/06/30 09:30:11;;;;;;;4.25;3.05;;;18.90;99.90;;;;;;4990764;28;20509;-51
2021/06/30 09:32:51;;;;;;;3.72;3.20;;;18.90;99.90;;;;;;4998081;28;20064;-52
2021/06/30 09:35:26;;;;;;;3.42;3.22;;;18.80;99.90;;;;;;5006446;28;20026;-44
2021/06/30 09:37:52;;;;;;;10.68;4.05;;;18.80;99.90;;;;;;5011632;28;20022;-44
2021/06/30 09:40:18;;;;;;;7.75;3.03;;;18.80;99.90;;;;;;5011363;28;20029;-44
2021/06/30 09:42:44;;;;;;;6.60;3.20;;;18.60;99.90;;;;;;5012833;28;20026;-47
2021/06/30 09:45:14;;;;;;;9.15;2.85;;;18.60;99.90;;;;;;5013926;28;20045;-47
2021/06/30 09:47:46;;;;;;;3.40;3.05;;;18.50;99.90;;;;;;5014043;28;20112;-46
2021/06/30 09:50:12;;;;;;;3.55;3.25;;;18.60;99.90;;;;;;5013203;28;20485;-41
2021/06/30 09:52:40;;;;;;;4.18;3.88;;;18.70;99.90;;;;;;5013116;28;20029;-45
2021/06/30 09:55:31;;;;;;;6.43;3.60;;;18.80;99.90;;;;;;5013107;28;20028;-49
2021/06/30 09:57:59;;;;;;;5.70;3.50;;;18.80;99.90;;;;;;5014105;28;20076;-45
2021/06/30 10:00:28;;;;;;;2.97;2.78;;;19.00;99.90;;;;;;5013196;28;20022;-44
2021/06/30 10:02:55;;;;;;;3.88;3.33;;;19.10;99.90;;;;;;5012923;28;20406;-42
2021/06/30 10:05:29;;;;;;;3.00;2.90;;;19.10;99.90;;;;;;5012790;28;20037;-41
2021/06/30 10:08:11;;;;;;;3.00;2.75;;;19.10;99.90;;;;;;5013029;28;20382;-47
2021/06/30 10:10:37;;;;;;;2.80;2.58;;;19.20;99.90;;;;;;5013152;28;20030;-41
2021/06/30 10:13:03;;;;;;;2.20;2.03;;;19.30;99.90;;;;;;5013033;28;20081;-42
2021/06/30 10:15:28;;;;;;;2.35;2.25;;;19.50;99.70;;;;;;5012910;28;20028;-44
2021/06/30 10:17:54;;;;;;;4.05;3.33;;;19.60;99.60;;;;;;5013127;28;20030;-40
2021/06/30 10:20:20;;;;;;;2.45;2.35;;;19.60;99.60;;;;;;5015400;28;20021;-40
2021/06/30 10:22:46;;;;;;;2.78;2.30;;;19.60;99.50;;;;;;5013596;28;20486;-47
2021/06/30 10:25:11;;;;;;;2.75;2.65;;;19.60;99.70;;;;;;5012705;28;20037;-41
2021/06/30 10:27:38;;;;;;;2.92;2.75;;;19.70;99.80;;;;;;5012720;28;20030;-42
2021/06/30 10:30:05;;;;;;;6.40;2.92;;;19.80;99.90;;;;;;5011783;28;20435;-53
2021/06/30 10:32:31;;;;;;;3.13;2.92;;;19.90;99.40;;;;;;5001456;28;20091;-39
2021/06/30 10:35:04;;;;;;;5.03;3.17;;;19.90;99.40;;;;;;5013993;28;20105;-44
2021/06/30 10:37:32;;;;;;;3.40;3.20;;;19.90;99.10;;;;;;5000936;28;20023;-48
2021/06/30 10:40:14;;;;;;;3.83;3.47;;;19.80;99.60;;;;;;4994006;28;20308;-47
2021/06/30 10:42:48;;;;;;;3.83;3.53;;;19.90;98.90;;;;;;4975375;28;20041;-44
2021/06/30 10:45:13;;;;;;;3.30;3.10;;;19.90;98.20;;;;;;4992587;28;20033;-44
2021/06/30 10:47:54;;;;;;;6.18;3.30;;;20.10;98.30;;;;;;4992811;28;20022;-44
2021/06/30 10:50:24;;;;;;;3.40;3.15;;;20.30;98.20;;;;;;4993604;28;20026;-43
2021/06/30 10:53:09;;;;;;;2.72;2.60;;;20.50;97.60;;;;;;4993100;28;20026;-47
2021/06/30 10:55:40;;;;;;;2.80;2.60;;;20.60;97.20;;;;;;4992267;28;20057;-46
2021/06/30 10:58:14;;;;;;;2.97;2.78;;;20.70;97.60;;;;;;4992664;28;20029;-46
2021/06/30 11:00:41;;;;;;;1.98;1.88;;;20.80;96.40;;;;;;4992408;28;20090;-44
2021/06/30 11:03:34;;;;;;;3.67;1.98;;;20.70;97.10;;;;;;4992262;28;20034;-52
2021/06/30 11:06:09;;;;;;;2.00;1.90;;;20.80;97.70;;;;;;4992488;28;20018;-48
2021/06/30 11:08:52;;;;;;;5.25;1.58;;;20.80;96.50;;;;;;4992876;28;20041;-44
2021/06/30 11:11:27;;;;;;;5.20;1.35;;;21.00;96.80;;;;;;4991831;28;20460;-46
2021/06/30 11:14:08;;;;;;;1.10;1.00;;;20.90;95.60;;;;;;4991221;28;20448;-45
2021/06/30 11:16:36;;;;;;;2.50;1.27;;;20.80;96.30;;;;;;4992319;28;20037;-48
2021/06/30 11:19:14;;;;;;;1.52;1.30;;;20.60;96.40;;;;;;4991783;28;20081;-45
2021/06/30 11:21:50;;;;;;;1.45;1.35;;;20.50;98.10;;;;;;4992710;28;20034;-45
2021/06/30 11:29:59;;;;;;;2.33;1.20;;;20.10;99.40;;;;;;4993015;28;20038;-43
2021/06/30 11:32:46;;;;;;;2.88;1.40;;;20.10;99.90;;;;;;4991754;28;20490;-43
2021/06/30 11:35:23;;;;;;;1.02;0.98;;;19.90;99.80;;;;;;4992214;28;20018;-46
2021/06/30 11:38:12;;;;;;;2.25;1.05;;;19.80;99.90;;;;;;4992057;28;20030;-43
2021/06/30 11:40:42;;;;;;;1.42;1.33;;;19.60;99.90;;;;;;4991063;28;20508;-44
2021/06/30 11:43:26;;;;;;;1.33;1.25;;;19.50;99.90;;;;;;4992820;28;20401;-43
2021/06/30 11:45:54;;;;;;;2.50;1.13;;;19.40;99.90;;;;;;4991633;28;20034;-43
2021/06/30 11:48:20;;;;;;;2.65;1.02;;;19.30;99.90;;;;;;4991949;28;20034;-47
2021/06/30 11:50:53;;;;;;;3.72;1.40;;;19.20;99.90;;;;;;4991833;28;20030;-50
2021/06/30 11:53:34;;;;;;;4.35;1.40;;;19.10;99.90;;;;;;4991685;28;20117;-46
2021/06/30 11:56:00;;;;;;;1.83;1.48;;;19.10;99.90;;;;;;4992017;28;20030;-47
2021/06/30 11:58:54;;;;;;;1.83;1.20;;;19.00;99.90;;;;;;4992212;28;20031;-47
2021/06/30 12:01:28;;;;;;;2.47;1.15;;;19.00;99.90;;;;;;4991821;28;20030;-45
2021/06/30 12:04:21;;;;;;;1.50;1.20;;;19.00;99.90;;;;;;4991867;28;20073;-45
2021/06/30 12:06:52;;;;;;;1.30;1.25;;;19.10;99.90;;;;;;4991760;28;20033;-47
2021/06/30 12:09:20;;;;;;;0.80;0.80;;;19.20;99.90;;;;;;4991486;28;20030;-45
2021/06/30 12:11:53;;;;;;;1.05;1.05;;;19.20;99.90;;;;;;4991114;28;20064;-43
2021/06/30 12:14:21;;;;;;;2.88;1.83;;;19.20;99.90;;;;;;4991406;28;20057;-48
2021/06/30 12:17:08;;;;;;;1.38;0.90;;;19.20;99.90;;;;;;4991542;28;20580;-43
2021/06/30 12:19:38;;;;;;;1.33;1.20;;;19.20;99.90;;;;;;4991698;28;20041;-48
2021/06/30 12:22:23;;;;;;;1.52;1.10;;;19.10;99.90;;;;;;4974274;28;20029;-49
2021/06/30 12:25:01;;;;;;;2.03;1.27;;;19.10;99.90;;;;;;4983671;28;20120;-45
2021/06/30 12:27:40;;;;;;;1.75;1.00;;;19.10;99.90;;;;;;4991428;28;20026;-48
2021/06/30 12:30:14;;;;;;;2.78;1.40;;;19.00;99.90;;;;;;4991133;28;20058;-44
2021/06/30 12:32:48;;;;;;;5.00;1.27;;;18.90;99.90;;;;;;4990433;28;20026;-44
2021/06/30 12:35:15;;;;;;;2.35;1.00;;;18.90;99.90;;;;;;4991168;28;20018;-42
2021/06/30 12:37:43;;;;;;;0.90;0.90;;;18.80;99.90;;;;;;4991174;28;20513;-45
2021/06/30 12:40:11;;;;;;;1.05;1.00;;;18.80;99.90;;;;;;4990936;28;20405;-44
2021/06/30 12:42:51;;;;;;;6.25;1.10;;;18.70;99.90;;;;;;4990945;28;20037;-45
2021/06/30 12:45:19;;;;;;;3.05;1.35;;;18.70;99.90;;;;;;4990336;28;20549;-45
2021/06/30 12:47:56;;;;;;;1.00;1.00;;;18.70;99.90;;;;;;4990891;28;20042;-44
2021/06/30 12:50:36;;;;;;;4.95;1.15;;;18.80;99.90;;;;;;4990379;28;20066;-46
2021/06/30 12:53:22;;;;;;;3.35;0.90;;;18.80;99.90;;;;;;4990790;28;20073;-40
2021/06/30 12:55:58;;;;;;;0.95;0.93;;;18.80;99.90;;;;;;4990639;28;20478;-46